sensor_id;sensor_type;location;lat;lon;timestamp;temperature;humidity
66057;DHT22;52842;52.666;5.202;2023-03-31T10:18:18;19.80;64.20
66057;DHT22;52842;52.666;5.202;2023-03-31T10:20:47;20.10;64.10
66057;DHT22;52842;52.666;5.202;2023-03-31T10:23:15;20.40;63.40
66057;DHT22;52842;52.666;5.202;2023-03-31T10:25:42;20.60;62.60
66057;DHT22;52842;52.666;5.202;2023-03-31T10:28:09;20.80;62.00
66057;DHT22;52842;52.666;5.202;2023-03-31T10:30:37;20.90;61.40
66057;DHT22;52842;52.666;5.202;2023-03-31T10:33:09;21.00;61.10
66057;DHT22;52842;52.666;5.202;2023-03-31T10:35:38;21.00;60.80
66057;DHT22;52842;52.666;5.202;2023-03-31T10:38:06;20.80;60.70
66057;DHT22;52842;52.666;5.202;2023-03-31T10:40:36;20.60;61.10
66057;DHT22;52842;52.666;5.202;2023-03-31T10:43:04;20.50;62.30
66057;DHT22;52842;52.666;5.202;2023-03-31T10:45:36;20.30;62.20
66057;DHT22;52842;52.666;5.202;2023-03-31T10:48:03;20.10;62.60
66057;DHT22;52842;52.666;5.202;2023-03-31T10:50:30;20.00;63.10
66057;DHT22;52842;52.666;5.202;2023-03-31T10:53:03;19.90;63.40
66057;DHT22;52842;52.666;5.202;2023-03-31T10:55:33;19.80;63.80
66057;DHT22;52842;52.666;5.202;2023-03-31T10:58:01;19.70;64.10
66057;DHT22;52842;52.666;5.202;2023-03-31T11:00:30;19.60;64.30
66057;DHT22;52842;52.666;5.202;2023-03-31T11:05:46;19.60;65.00
66057;DHT22;52842;52.666;5.202;2023-03-31T11:08:20;19.70;65.30
66057;DHT22;52842;52.666;5.202;2023-03-31T11:10:57;19.90;64.90
66057;DHT22;52842;52.666;5.202;2023-03-31T11:13:28;20.10;64.20
66057;DHT22;52842;52.666;5.202;2023-03-31T11:15:59;20.30;63.50
66057;DHT22;52842;52.666;5.202;2023-03-31T11:18:33;20.40;62.90
66057;DHT22;52842;52.666;5.202;2023-03-31T11:21:02;20.60;62.30
66057;DHT22;52842;52.666;5.202;2023-03-31T11:23:36;20.60;61.80
66057;DHT22;52842;52.666;5.202;2023-03-31T11:26:06;20.70;61.50
66057;DHT22;52842;52.666;5.202;2023-03-31T11:28:37;20.70;61.30
66057;DHT22;52842;52.666;5.202;2023-03-31T11:31:09;20.60;61.20
66057;DHT22;52842;52.666;5.202;2023-03-31T11:33:43;20.40;61.50
66057;DHT22;52842;52.666;5.202;2023-03-31T11:36:14;20.30;61.80
66057;DHT22;52842;52.666;5.202;2023-03-31T11:38:48;20.10;62.10
66057;DHT22;52842;52.666;5.202;2023-03-31T11:41:20;20.00;62.50
66057;DHT22;52842;52.666;5.202;2023-03-31T11:43:49;19.90;62.90
66057;DHT22;52842;52.666;5.202;2023-03-31T11:46:17;19.80;63.30
66057;DHT22;52842;52.666;5.202;2023-03-31T11:48:47;19.80;63.60
66057;DHT22;52842;52.666;5.202;2023-03-31T11:51:18;19.70;63.80
66057;DHT22;52842;52.666;5.202;2023-03-31T11:53:47;19.70;64.00
66057;DHT22;52842;52.666;5.202;2023-03-31T11:56:14;19.60;64.20
66057;DHT22;52842;52.666;5.202;2023-03-31T11:58:43;19.60;64.50
66057;DHT22;52842;52.666;5.202;2023-03-31T12:01:13;19.60;64.70
66057;DHT22;52842;52.666;5.202;2023-03-31T12:03:41;19.50;64.80
66057;DHT22;52842;52.666;5.202;2023-03-31T12:06:12;19.50;64.90
66057;DHT22;52842;52.666;5.202;2023-03-31T12:08:45;19.40;65.00
66057;DHT22;52842;52.666;5.202;2023-03-31T12:11:15;19.40;65.10
66057;DHT22;52842;52.666;5.202;2023-03-31T12:13:45;19.40;65.90
66057;DHT22;52842;52.666;5.202;2023-03-31T12:16:17;19.40;65.30
66057;DHT22;52842;52.666;5.202;2023-03-31T12:18:48;19.40;65.40
66057;DHT22;52842;52.666;5.202;2023-03-31T12:21:22;19.40;65.50
66057;DHT22;52842;52.666;5.202;2023-03-31T12:23:49;19.40;65.60
66057;DHT22;52842;52.666;5.202;2023-03-31T12:26:26;19.40;65.60
66057;DHT22;52842;52.666;5.202;2023-03-31T12:28:56;19.30;65.70
66057;DHT22;52842;52.666;5.202;2023-03-31T12:31:23;19.30;65.70
66057;DHT22;52842;52.666;5.202;2023-03-31T12:33:53;19.30;65.90
66057;DHT22;52842;52.666;5.202;2023-03-31T12:36:24;19.30;65.90
66057;DHT22;52842;52.666;5.202;2023-03-31T12:38:55;19.30;66.00
66057;DHT22;52842;52.666;5.202;2023-03-31T12:41:25;19.30;66.00
66057;DHT22;52842;52.666;5.202;2023-03-31T12:44:00;19.20;66.00
66057;DHT22;52842;52.666;5.202;2023-03-31T12:49:39;19.20;66.10
66057;DHT22;52842;52.666;5.202;2023-03-31T12:52:12;19.20;66.20
66057;DHT22;52842;52.666;5.202;2023-03-31T12:54:45;19.20;66.20
66057;DHT22;52842;52.666;5.202;2023-03-31T12:57:20;19.20;66.20
66057;DHT22;52842;52.666;5.202;2023-03-31T13:02:30;19.10;66.30
66057;DHT22;52842;52.666;5.202;2023-03-31T13:04:57;19.10;66.30
66057;DHT22;52842;52.666;5.202;2023-03-31T13:07:39;19.10;66.40
66057;DHT22;52842;52.666;5.202;2023-03-31T13:10:23;19.10;66.40
66057;DHT22;52842;52.666;5.202;2023-03-31T13:12:57;19.10;66.50
66057;DHT22;52842;52.666;5.202;2023-03-31T13:15:23;19.20;66.60
66057;DHT22;52842;52.666;5.202;2023-03-31T13:17:53;19.40;66.20
66057;DHT22;52842;52.666;5.202;2023-03-31T13:20:25;19.50;65.80
66057;DHT22;52842;52.666;5.202;2023-03-31T13:22:58;19.80;65.20
66057;DHT22;52842;52.666;5.202;2023-03-31T13:30:57;20.60;62.70
66057;DHT22;52842;52.666;5.202;2023-03-31T13:33:27;20.80;62.00
66057;DHT22;52842;52.666;5.202;2023-03-31T13:36:01;20.90;61.50
66057;DHT22;52842;52.666;5.202;2023-03-31T13:38:36;21.00;61.20
66057;DHT22;52842;52.666;5.202;2023-03-31T13:41:09;21.00;60.80
66057;DHT22;52842;52.666;5.202;2023-03-31T13:43:41;21.00;60.50
66057;DHT22;52842;52.666;5.202;2023-03-31T13:46:18;20.90;60.60
66057;DHT22;52842;52.666;5.202;2023-03-31T13:48:49;20.70;61.10
66057;DHT22;52842;52.666;5.202;2023-03-31T13:51:22;20.50;61.60
66057;DHT22;52842;52.666;5.202;2023-03-31T13:56:40;20.20;62.70
66057;DHT22;52842;52.666;5.202;2023-03-31T13:59:14;20.10;63.20
66057;DHT22;52842;52.666;5.202;2023-03-31T14:01:49;19.90;63.50
66057;DHT22;52842;52.666;5.202;2023-03-31T14:04:36;19.90;63.90
66057;DHT22;52842;52.666;5.202;2023-03-31T14:07:08;19.80;64.10
66057;DHT22;52842;52.666;5.202;2023-03-31T14:09:36;19.70;64.40
66057;DHT22;52842;52.666;5.202;2023-03-31T14:12:17;19.70;64.70
66057;DHT22;52842;52.666;5.202;2023-03-31T14:14:44;19.90;65.40
66057;DHT22;52842;52.666;5.202;2023-03-31T14:17:12;20.20;64.90
66057;DHT22;52842;52.666;5.202;2023-03-31T14:19:52;20.40;64.00
66057;DHT22;52842;52.666;5.202;2023-03-31T14:22:22;20.60;63.50
66057;DHT22;52842;52.666;5.202;2023-03-31T14:24:54;20.80;63.00
66057;DHT22;52842;52.666;5.202;2023-03-31T14:27:29;21.00;62.40
66057;DHT22;52842;52.666;5.202;2023-03-31T14:30:01;21.10;61.80
66057;DHT22;52842;52.666;5.202;2023-03-31T14:32:33;21.20;61.30
66057;DHT22;52842;52.666;5.202;2023-03-31T14:35:08;21.30;61.00
66057;DHT22;52842;52.666;5.202;2023-03-31T14:37:39;21.20;60.80
66057;DHT22;52842;52.666;5.202;2023-03-31T14:40:09;21.00;61.00
66057;DHT22;52842;52.666;5.202;2023-03-31T14:42:38;20.90;61.50
66057;DHT22;52842;52.666;5.202;2023-03-31T14:45:05;20.70;62.00
66057;DHT22;52842;52.666;5.202;2023-03-31T14:47:35;20.50;62.40
66057;DHT22;52842;52.666;5.202;2023-03-31T14:50:04;20.40;62.90
66057;DHT22;52842;52.666;5.202;2023-03-31T14:52:31;20.30;63.20
66057;DHT22;52842;52.666;5.202;2023-03-31T14:54:59;20.20;63.60
66057;DHT22;52842;52.666;5.202;2023-03-31T14:57:28;20.20;63.90
66057;DHT22;52842;52.666;5.202;2023-03-31T14:59:56;20.10;64.10
66057;DHT22;52842;52.666;5.202;2023-03-31T15:02:27;20.00;64.30
66057;DHT22;52842;52.666;5.202;2023-03-31T15:04:56;20.00;64.50
66057;DHT22;52842;52.666;5.202;2023-03-31T15:07:23;20.10;65.00
66057;DHT22;52842;52.666;5.202;2023-03-31T15:09:52;20.30;64.50
66057;DHT22;52842;52.666;5.202;2023-03-31T15:12:19;20.60;63.80
66057;DHT22;52842;52.666;5.202;2023-03-31T15:14:48;20.90;63.10
66057;DHT22;52842;52.666;5.202;2023-03-31T15:17:19;21.20;62.30
66057;DHT22;52842;52.666;5.202;2023-03-31T15:19:50;21.30;61.50
66057;DHT22;52842;52.666;5.202;2023-03-31T15:22:20;21.30;61.10
66057;DHT22;52842;52.666;5.202;2023-03-31T15:24:47;21.30;61.10
66057;DHT22;52842;52.666;5.202;2023-03-31T15:27:14;21.20;61.20
66057;DHT22;52842;52.666;5.202;2023-03-31T15:29:46;21.10;61.00
66057;DHT22;52842;52.666;5.202;2023-03-31T15:32:18;21.00;61.20
66057;DHT22;52842;52.666;5.202;2023-03-31T15:34:50;20.90;61.70
66057;DHT22;52842;52.666;5.202;2023-03-31T15:37:21;20.70;62.00
66057;DHT22;52842;52.666;5.202;2023-03-31T15:39:59;20.60;62.40
66057;DHT22;52842;52.666;5.202;2023-03-31T15:42:28;20.50;62.60
66057;DHT22;52842;52.666;5.202;2023-03-31T15:45:02;20.40;63.00
66057;DHT22;52842;52.666;5.202;2023-03-31T15:47:48;20.30;63.20
66057;DHT22;52842;52.666;5.202;2023-03-31T15:50:27;20.20;63.50
66057;DHT22;52842;52.666;5.202;2023-03-31T15:52:58;20.20;63.70
66057;DHT22;52842;52.666;5.202;2023-03-31T15:55:38;20.10;63.80
66057;DHT22;52842;52.666;5.202;2023-03-31T15:58:10;20.10;64.00
66057;DHT22;52842;52.666;5.202;2023-03-31T16:00:42;20.20;64.40
66057;DHT22;52842;52.666;5.202;2023-03-31T16:03:13;20.30;64.00
66057;DHT22;52842;52.666;5.202;2023-03-31T16:05:52;20.50;63.60
66057;DHT22;52842;52.666;5.202;2023-03-31T16:08:24;20.60;63.20
66057;DHT22;52842;52.666;5.202;2023-03-31T16:10:58;20.80;62.70
66057;DHT22;52842;52.666;5.202;2023-03-31T16:16:05;21.00;61.90
66057;DHT22;52842;52.666;5.202;2023-03-31T16:18:32;21.00;61.60
66057;DHT22;52842;52.666;5.202;2023-03-31T16:21:01;21.00;61.40
66057;DHT22;52842;52.666;5.202;2023-03-31T16:23:30;21.10;61.30
66057;DHT22;52842;52.666;5.202;2023-03-31T16:25:58;21.00;61.40
66057;DHT22;52842;52.666;5.202;2023-03-31T16:28:25;20.80;61.80
66057;DHT22;52842;52.666;5.202;2023-03-31T16:30:54;20.70;62.20
66057;DHT22;52842;52.666;5.202;2023-03-31T16:33:21;20.60;62.70
66057;DHT22;52842;52.666;5.202;2023-03-31T16:35:49;20.50;63.10
66057;DHT22;52842;52.666;5.202;2023-03-31T16:38:18;20.40;63.50
66057;DHT22;52842;52.666;5.202;2023-03-31T16:40:47;20.40;64.10
66057;DHT22;52842;52.666;5.202;2023-03-31T16:43:15;20.30;65.30
66057;DHT22;52842;52.666;5.202;2023-03-31T16:45:42;20.30;66.10
66057;DHT22;52842;52.666;5.202;2023-03-31T16:48:09;20.30;66.70
66057;DHT22;52842;52.666;5.202;2023-03-31T16:50:36;20.30;66.80
66057;DHT22;52842;52.666;5.202;2023-03-31T16:53:04;20.20;66.90
66057;DHT22;52842;52.666;5.202;2023-03-31T16:55:31;20.30;67.10
66057;DHT22;52842;52.666;5.202;2023-03-31T16:57:59;20.40;67.60
66057;DHT22;52842;52.666;5.202;2023-03-31T17:00:27;20.70;67.20
66057;DHT22;52842;52.666;5.202;2023-03-31T17:02:54;21.00;66.50
66057;DHT22;52842;52.666;5.202;2023-03-31T17:05:21;21.20;65.60
66057;DHT22;52842;52.666;5.202;2023-03-31T17:07:48;21.50;64.70
66057;DHT22;52842;52.666;5.202;2023-03-31T17:10:15;21.70;63.90
66057;DHT22;52842;52.666;5.202;2023-03-31T17:12:41;21.90;63.30
66057;DHT22;52842;52.666;5.202;2023-03-31T17:15:10;22.00;62.70
66057;DHT22;52842;52.666;5.202;2023-03-31T17:17:36;22.00;62.30
66057;DHT22;52842;52.666;5.202;2023-03-31T17:26:09;22.10;61.70
66057;DHT22;52842;52.666;5.202;2023-03-31T17:28:37;22.00;61.60
66057;DHT22;52842;52.666;5.202;2023-03-31T17:31:10;21.80;61.90
66057;DHT22;52842;52.666;5.202;2023-03-31T17:33:37;21.60;62.60
66057;DHT22;52842;52.666;5.202;2023-03-31T17:36:04;21.40;63.10
66057;DHT22;52842;52.666;5.202;2023-03-31T17:38:31;21.20;63.60
66057;DHT22;52842;52.666;5.202;2023-03-31T17:41:01;21.10;64.00
66057;DHT22;52842;52.666;5.202;2023-03-31T17:43:27;20.90;64.40
66057;DHT22;52842;52.666;5.202;2023-03-31T17:45:58;20.80;64.70
66057;DHT22;52842;52.666;5.202;2023-03-31T17:48:27;20.70;64.90
66057;DHT22;52842;52.666;5.202;2023-03-31T17:50:53;20.60;65.20
66057;DHT22;52842;52.666;5.202;2023-03-31T17:53:20;20.60;65.40
66057;DHT22;52842;52.666;5.202;2023-03-31T17:55:47;20.50;65.60
66057;DHT22;52842;52.666;5.202;2023-03-31T17:58:13;20.60;66.00
66057;DHT22;52842;52.666;5.202;2023-03-31T18:00:40;20.80;65.50
66057;DHT22;52842;52.666;5.202;2023-03-31T18:03:07;21.10;64.70
66057;DHT22;52842;52.666;5.202;2023-03-31T18:05:35;21.30;63.80
66057;DHT22;52842;52.666;5.202;2023-03-31T18:08:03;21.50;63.10
66057;DHT22;52842;52.666;5.202;2023-03-31T18:10:30;21.60;62.70
66057;DHT22;52842;52.666;5.202;2023-03-31T18:12:57;21.70;62.20
66057;DHT22;52842;52.666;5.202;2023-03-31T18:15:24;21.90;61.90
66057;DHT22;52842;52.666;5.202;2023-03-31T18:17:51;21.90;61.40
66057;DHT22;52842;52.666;5.202;2023-03-31T18:20:18;22.00;61.20
66057;DHT22;52842;52.666;5.202;2023-03-31T18:22:46;22.10;61.00
66057;DHT22;52842;52.666;5.202;2023-03-31T18:25:13;22.10;60.80
66057;DHT22;52842;52.666;5.202;2023-03-31T18:27:40;22.10;60.70
66057;DHT22;52842;52.666;5.202;2023-03-31T18:30:07;22.10;60.60
66057;DHT22;52842;52.666;5.202;2023-03-31T18:32:34;22.10;60.60
66057;DHT22;52842;52.666;5.202;2023-03-31T18:35:01;21.90;60.70
66057;DHT22;52842;52.666;5.202;2023-03-31T18:37:27;21.70;61.20
66057;DHT22;52842;52.666;5.202;2023-03-31T18:39:55;21.60;61.70
66057;DHT22;52842;52.666;5.202;2023-03-31T18:42:22;21.40;62.20
66057;DHT22;52842;52.666;5.202;2023-03-31T18:44:50;21.20;62.70
66057;DHT22;52842;52.666;5.202;2023-03-31T18:47:17;21.10;63.20
66057;DHT22;52842;52.666;5.202;2023-03-31T18:49:44;21.00;63.60
66057;DHT22;52842;52.666;5.202;2023-03-31T18:52:11;20.90;63.90
66057;DHT22;52842;52.666;5.202;2023-03-31T18:54:38;20.80;64.20
66057;DHT22;52842;52.666;5.202;2023-03-31T18:57:07;20.70;64.40
66057;DHT22;52842;52.666;5.202;2023-03-31T18:59:33;20.60;64.60
66057;DHT22;52842;52.666;5.202;2023-03-31T19:02:00;20.60;64.70
66057;DHT22;52842;52.666;5.202;2023-03-31T19:04:27;20.60;65.00
66057;DHT22;52842;52.666;5.202;2023-03-31T19:06:54;20.50;65.00
66057;DHT22;52842;52.666;5.202;2023-03-31T19:09:21;20.50;65.10
66057;DHT22;52842;52.666;5.202;2023-03-31T19:11:50;20.40;65.30
66057;DHT22;52842;52.666;5.202;2023-03-31T19:14:18;20.40;65.50
66057;DHT22;52842;52.666;5.202;2023-03-31T19:16:45;20.30;65.50
66057;DHT22;52842;52.666;5.202;2023-03-31T19:19:11;20.30;65.70
66057;DHT22;52842;52.666;5.202;2023-03-31T19:21:38;20.30;66.00
66057;DHT22;52842;52.666;5.202;2023-03-31T19:24:06;20.20;66.10
66057;DHT22;52842;52.666;5.202;2023-03-31T19:26:34;20.20;66.20
66057;DHT22;52842;52.666;5.202;2023-03-31T19:29:00;20.20;66.40
66057;DHT22;52842;52.666;5.202;2023-03-31T19:31:28;20.10;66.40
66057;DHT22;52842;52.666;5.202;2023-03-31T19:33:57;20.10;66.40
66057;DHT22;52842;52.666;5.202;2023-03-31T19:36:25;20.10;66.60
66057;DHT22;52842;52.666;5.202;2023-03-31T19:38:52;20.20;66.80
66057;DHT22;52842;52.666;5.202;2023-03-31T19:41:18;20.40;66.30
66057;DHT22;52842;52.666;5.202;2023-03-31T19:43:46;20.70;65.60
66057;DHT22;52842;52.666;5.202;2023-03-31T19:46:13;21.00;64.80
66057;DHT22;52842;52.666;5.202;2023-03-31T19:48:41;21.20;64.00
66057;DHT22;52842;52.666;5.202;2023-03-31T19:51:08;21.40;63.10
66057;DHT22;52842;52.666;5.202;2023-03-31T19:53:35;21.70;62.50
66057;DHT22;52842;52.666;5.202;2023-03-31T19:56:03;21.80;62.00
66057;DHT22;52842;52.666;5.202;2023-03-31T19:58:30;21.90;61.50
66057;DHT22;52842;52.666;5.202;2023-03-31T20:00:59;22.00;61.10
66057;DHT22;52842;52.666;5.202;2023-03-31T20:03:26;22.10;60.80
66057;DHT22;52842;52.666;5.202;2023-03-31T20:06:01;22.20;60.60
66057;DHT22;52842;52.666;5.202;2023-03-31T20:08:28;22.10;60.30
66057;DHT22;52842;52.666;5.202;2023-03-31T20:10:57;22.20;60.30
66057;DHT22;52842;52.666;5.202;2023-03-31T20:13:23;22.20;60.20
66057;DHT22;52842;52.666;5.202;2023-03-31T20:15:56;22.10;60.20
66057;DHT22;52842;52.666;5.202;2023-03-31T20:18:23;21.90;60.40
66057;DHT22;52842;52.666;5.202;2023-03-31T20:20:50;21.70;60.90
66057;DHT22;52842;52.666;5.202;2023-03-31T20:23:18;21.50;61.40
66057;DHT22;52842;52.666;5.202;2023-03-31T20:25:45;21.30;62.00
66057;DHT22;52842;52.666;5.202;2023-03-31T20:28:11;21.20;62.60
66057;DHT22;52842;52.666;5.202;2023-03-31T20:30:38;21.00;63.00
66057;DHT22;52842;52.666;5.202;2023-03-31T20:33:05;20.90;63.40
66057;DHT22;52842;52.666;5.202;2023-03-31T20:35:32;20.80;63.40
66057;DHT22;52842;52.666;5.202;2023-03-31T20:37:58;20.70;63.70
66057;DHT22;52842;52.666;5.202;2023-03-31T20:40:27;20.60;64.00
66057;DHT22;52842;52.666;5.202;2023-03-31T20:42:54;20.60;64.10
66057;DHT22;52842;52.666;5.202;2023-03-31T20:45:20;20.50;64.40
66057;DHT22;52842;52.666;5.202;2023-03-31T20:47:47;20.40;64.60
66057;DHT22;52842;52.666;5.202;2023-03-31T20:50:15;20.40;64.80
66057;DHT22;52842;52.666;5.202;2023-03-31T20:52:41;20.30;65.00
66057;DHT22;52842;52.666;5.202;2023-03-31T20:55:10;20.30;65.30
66057;DHT22;52842;52.666;5.202;2023-03-31T20:57:38;20.30;65.50
66057;DHT22;52842;52.666;5.202;2023-03-31T21:00:05;20.20;65.70
66057;DHT22;52842;52.666;5.202;2023-03-31T21:02:32;20.20;65.80
66057;DHT22;52842;52.666;5.202;2023-03-31T21:04:59;20.20;66.10
66057;DHT22;52842;52.666;5.202;2023-03-31T21:07:25;20.10;66.20
66057;DHT22;52842;52.666;5.202;2023-03-31T21:09:52;20.00;66.30
66057;DHT22;52842;52.666;5.202;2023-03-31T21:12:19;20.00;66.40
66057;DHT22;52842;52.666;5.202;2023-03-31T21:14:47;20.00;66.60
66057;DHT22;52842;52.666;5.202;2023-03-31T21:17:14;19.90;66.70
66057;DHT22;52842;52.666;5.202;2023-03-31T21:19:41;19.90;66.80
66057;DHT22;52842;52.666;5.202;2023-03-31T21:22:07;19.90;66.90
66057;DHT22;52842;52.666;5.202;2023-03-31T21:24:34;19.90;67.00
66057;DHT22;52842;52.666;5.202;2023-03-31T21:27:01;19.80;67.10
66057;DHT22;52842;52.666;5.202;2023-03-31T21:29:27;19.80;67.20
66057;DHT22;52842;52.666;5.202;2023-03-31T21:31:55;19.90;67.40
66057;DHT22;52842;52.666;5.202;2023-03-31T21:34:22;19.70;67.30
66057;DHT22;52842;52.666;5.202;2023-03-31T21:36:49;19.70;67.40
66057;DHT22;52842;52.666;5.202;2023-03-31T21:39:15;19.70;67.50
66057;DHT22;52842;52.666;5.202;2023-03-31T21:41:42;19.60;67.50
66057;DHT22;52842;52.666;5.202;2023-03-31T21:44:08;19.60;67.60
66057;DHT22;52842;52.666;5.202;2023-03-31T21:46:35;19.60;67.70
66057;DHT22;52842;52.666;5.202;2023-03-31T21:49:03;19.60;67.90
66057;DHT22;52842;52.666;5.202;2023-03-31T21:51:30;19.60;68.10
66057;DHT22;52842;52.666;5.202;2023-03-31T21:53:57;19.50;68.10
66057;DHT22;52842;52.666;5.202;2023-03-31T21:56:24;19.50;68.10
66057;DHT22;52842;52.666;5.202;2023-03-31T21:58:51;19.50;68.20
66057;DHT22;52842;52.666;5.202;2023-03-31T22:01:18;19.50;68.20
66057;DHT22;52842;52.666;5.202;2023-03-31T22:03:45;19.50;68.20
66057;DHT22;52842;52.666;5.202;2023-03-31T22:06:14;19.40;68.20
66057;DHT22;52842;52.666;5.202;2023-03-31T22:08:41;19.40;68.20
66057;DHT22;52842;52.666;5.202;2023-03-31T22:11:08;19.40;68.20
66057;DHT22;52842;52.666;5.202;2023-03-31T22:13:35;19.30;68.20
66057;DHT22;52842;52.666;5.202;2023-03-31T22:16:02;19.30;68.20
66057;DHT22;52842;52.666;5.202;2023-03-31T22:18:29;19.30;68.20
66057;DHT22;52842;52.666;5.202;2023-03-31T22:20:56;19.30;68.20
66057;DHT22;52842;52.666;5.202;2023-03-31T22:23:24;19.20;68.20
66057;DHT22;52842;52.666;5.202;2023-03-31T22:25:51;19.20;68.20
66057;DHT22;52842;52.666;5.202;2023-03-31T22:28:18;19.20;68.20
66057;DHT22;52842;52.666;5.202;2023-03-31T22:30:45;19.20;68.20
66057;DHT22;52842;52.666;5.202;2023-03-31T22:33:11;19.10;68.20
66057;DHT22;52842;52.666;5.202;2023-03-31T22:35:38;19.10;68.20
66057;DHT22;52842;52.666;5.202;2023-03-31T22:38:05;19.10;68.20
66057;DHT22;52842;52.666;5.202;2023-03-31T22:40:34;19.10;68.20
66057;DHT22;52842;52.666;5.202;2023-03-31T22:43:01;19.10;68.20
66057;DHT22;52842;52.666;5.202;2023-03-31T22:45:28;19.00;68.20
66057;DHT22;52842;52.666;5.202;2023-03-31T22:47:55;19.00;68.20
66057;DHT22;52842;52.666;5.202;2023-03-31T22:50:21;19.00;68.30
66057;DHT22;52842;52.666;5.202;2023-03-31T22:52:48;18.90;68.10
66057;DHT22;52842;52.666;5.202;2023-03-31T22:55:15;18.90;68.20
66057;DHT22;52842;52.666;5.202;2023-03-31T22:57:43;18.90;68.20
66057;DHT22;52842;52.666;5.202;2023-03-31T23:00:10;18.90;68.20
66057;DHT22;52842;52.666;5.202;2023-03-31T23:02:38;18.90;69.00
66057;DHT22;52842;52.666;5.202;2023-03-31T23:05:05;18.90;68.20
66057;DHT22;52842;52.666;5.202;2023-03-31T23:07:32;18.80;68.30
66057;DHT22;52842;52.666;5.202;2023-03-31T23:09:58;18.80;68.20
66057;DHT22;52842;52.666;5.202;2023-03-31T23:12:25;18.80;68.20
66057;DHT22;52842;52.666;5.202;2023-03-31T23:14:53;18.80;68.20
66057;DHT22;52842;52.666;5.202;2023-03-31T23:17:20;18.80;68.20
66057;DHT22;52842;52.666;5.202;2023-03-31T23:19:46;18.70;68.20
66057;DHT22;52842;52.666;5.202;2023-03-31T23:22:13;18.70;68.20
66057;DHT22;52842;52.666;5.202;2023-03-31T23:24:40;18.70;68.30
66057;DHT22;52842;52.666;5.202;2023-03-31T23:27:07;18.70;68.30
66057;DHT22;52842;52.666;5.202;2023-03-31T23:29:34;18.60;68.20
66057;DHT22;52842;52.666;5.202;2023-03-31T23:32:02;18.60;68.20
66057;DHT22;52842;52.666;5.202;2023-03-31T23:34:28;18.60;68.20
66057;DHT22;52842;52.666;5.202;2023-03-31T23:36:56;18.60;68.30
66057;DHT22;52842;52.666;5.202;2023-03-31T23:39:22;18.60;68.20
66057;DHT22;52842;52.666;5.202;2023-03-31T23:41:49;18.60;68.20
66057;DHT22;52842;52.666;5.202;2023-03-31T23:44:16;18.50;68.20
66057;DHT22;52842;52.666;5.202;2023-03-31T23:46:43;18.50;68.20
66057;DHT22;52842;52.666;5.202;2023-03-31T23:49:11;18.50;68.20
66057;DHT22;52842;52.666;5.202;2023-03-31T23:51:38;18.50;68.30
66057;DHT22;52842;52.666;5.202;2023-03-31T23:54:04;18.40;68.20
66057;DHT22;52842;52.666;5.202;2023-03-31T23:56:31;18.40;68.30
66057;DHT22;52842;52.666;5.202;2023-03-31T23:58:58;18.40;68.30
